createdAt,value
2023-02-09T00:00:12.949Z,103137.22
2023-02-09T00:02:46.572Z,103123.50
2023-02-09T00:05:17.225Z,103126.94
2023-02-09T00:07:46.348Z,103122.66
2023-02-09T00:10:15.474Z,103115.75
2023-02-09T00:13:02.153Z,103122.59
2023-02-09T00:15:31.206Z,103127.78
2023-02-09T00:18:00.269Z,103109.72
2023-02-09T00:20:30.654Z,103109.72
2023-02-09T00:22:59.703Z,103099.47
2023-02-09T00:25:28.716Z,103102.84
2023-02-09T00:27:57.785Z,103097.72
2023-02-09T00:30:26.982Z,103096.03
2023-02-09T00:32:56.054Z,103087.44
2023-02-09T00:35:25.724Z,103095.94
2023-02-09T00:37:57.287Z,103080.56
2023-02-09T00:40:26.382Z,103074.56
2023-02-09T00:42:55.723Z,103070.22
2023-02-09T00:45:26.378Z,103073.72
2023-02-09T00:47:56.430Z,103066.84
2023-02-09T00:50:26.002Z,103064.28
2023-02-09T00:52:56.418Z,103064.28
2023-02-09T00:55:25.424Z,103054.84
2023-02-09T00:57:54.573Z,103046.31
2023-02-09T01:00:23.712Z,103057.41
2023-02-09T01:02:52.845Z,103047.97
2023-02-09T01:05:22.010Z,103047.16
2023-02-09T01:07:51.127Z,103045.44
2023-02-09T01:10:21.794Z,103043.66
2023-02-09T01:12:52.169Z,103047.06
2023-02-09T01:15:21.392Z,103041.94
2023-02-09T01:17:50.424Z,103041.09
2023-02-09T01:20:20.043Z,103040.19
2023-02-09T01:22:49.099Z,103034.19
2023-02-09T01:25:18.212Z,103026.50
2023-02-09T01:27:48.709Z,103020.53
2023-02-09T01:30:18.264Z,103019.66
2023-02-09T01:32:47.373Z,103019.59
2023-02-09T01:35:16.527Z,103014.50
2023-02-09T01:37:45.558Z,103012.81
2023-02-09T01:40:15.886Z,103010.28
2023-02-09T01:42:45.001Z,103004.28
2023-02-09T01:45:23.503Z,103004.31
2023-02-09T01:47:58.120Z,103001.78
2023-02-09T01:50:30.603Z,102994.06
2023-02-09T01:53:00.004Z,102988.00
2023-02-09T01:55:33.812Z,102992.31
2023-02-09T01:58:08.255Z,102989.72
2023-02-09T02:00:38.973Z,102983.75
2023-02-09T02:03:10.584Z,102977.75
2023-02-09T02:05:44.664Z,102986.31
2023-02-09T02:08:20.236Z,102982.06
2023-02-09T02:10:49.575Z,102978.63
2023-02-09T02:13:20.696Z,102976.03
2023-02-09T02:16:07.730Z,102968.38
2023-02-09T02:18:55.906Z,102969.22
2023-02-09T02:21:51.906Z,102959.81
2023-02-09T02:24:55.928Z,102952.06
2023-02-09T02:27:33.090Z,102957.25
2023-02-09T02:30:35.981Z,102952.09
2023-02-09T02:33:19.642Z,102956.38
2023-02-09T02:35:55.058Z,102955.50
2023-02-09T02:38:34.465Z,102958.09
2023-02-09T02:41:13.149Z,102941.81
2023-02-09T02:43:52.337Z,102941.78
2023-02-09T02:46:27.449Z,102941.75
2023-02-09T02:49:02.311Z,102938.28
2023-02-09T02:51:34.948Z,102944.34
2023-02-09T02:54:08.115Z,102944.28
2023-02-09T02:56:41.347Z,102942.63
2023-02-09T02:59:15.268Z,102936.63
2023-02-09T03:01:49.143Z,102931.47
2023-02-09T03:04:20.663Z,102925.47
2023-02-09T03:06:49.679Z,102928.03
2023-02-09T03:09:19.621Z,102925.44
2023-02-09T03:11:56.150Z,102916.88
2023-02-09T03:14:42.939Z,102921.16
2023-02-09T03:17:25.056Z,102924.59
2023-02-09T03:20:03.496Z,102916.91
2023-02-09T03:22:37.890Z,102910.06
2023-02-09T03:25:12.985Z,102906.59
2023-02-09T03:27:46.306Z,102901.47
2023-02-09T03:30:18.177Z,102896.28
2023-02-09T03:32:49.308Z,102901.41
2023-02-09T03:35:21.540Z,102904.03
2023-02-09T03:37:50.622Z,102896.28
2023-02-09T03:40:20.303Z,102883.47
2023-02-09T03:42:50.019Z,102880.84
2023-02-09T03:45:19.167Z,102870.63
2023-02-09T03:47:48.500Z,102874.00
2023-02-09T03:50:19.180Z,102862.88
2023-02-09T03:52:48.325Z,102864.59
2023-02-09T03:55:17.556Z,102859.47
2023-02-09T03:57:49.902Z,102854.34
2023-02-09T04:00:19.647Z,102859.47
2023-02-09T04:02:49.202Z,102854.34
2023-02-09T04:05:19.813Z,102860.34
2023-02-09T04:07:48.984Z,102859.50
2023-02-09T04:10:18.101Z,102862.03
2023-02-09T04:12:48.160Z,102854.31
2023-02-09T04:15:17.394Z,102854.34
2023-02-09T04:17:46.413Z,102853.47
2023-02-09T04:20:15.544Z,102852.63
2023-02-09T04:22:46.044Z,102845.75
2023-02-09T04:25:15.115Z,102847.53
2023-02-09T04:27:44.312Z,102840.69
2023-02-09T04:30:14.449Z,102834.72
2023-02-09T04:32:43.532Z,102830.41
2023-02-09T04:35:12.573Z,102835.56
2023-02-09T04:37:41.625Z,102830.44
2023-02-09T04:40:12.880Z,102817.63
2023-02-09T04:42:41.929Z,102809.88
2023-02-09T04:45:11.161Z,102815.03
2023-02-09T04:47:40.337Z,102812.53
2023-02-09T04:50:09.811Z,102807.38
2023-02-09T04:52:38.808Z,102802.22
2023-02-09T04:55:08.145Z,102809.09
2023-02-09T04:57:55.946Z,102812.50
2023-02-09T05:00:25.056Z,102817.63
2023-02-09T05:02:55.098Z,102819.34
2023-02-09T05:05:24.141Z,102819.31
2023-02-09T05:07:53.299Z,102817.63
2023-02-09T05:10:22.706Z,102805.66
2023-02-09T05:12:53.843Z,102802.25
2023-02-09T05:15:23.068Z,102791.16
2023-02-09T05:17:52.208Z,102784.31
2023-02-09T05:20:21.399Z,102779.19
2023-02-09T05:22:50.443Z,102777.50
2023-02-09T05:25:19.705Z,102786.84
2023-02-09T05:27:49.064Z,102780.91
2023-02-09T05:30:20.302Z,102774.09
2023-02-09T05:32:50.143Z,102777.53
2023-02-09T05:35:19.696Z,102776.66
2023-02-09T05:37:48.739Z,102782.66
2023-02-09T05:40:18.578Z,102796.34
2023-02-09T05:42:47.713Z,102801.53
2023-02-09T05:45:18.322Z,102791.28
2023-02-09T05:47:47.539Z,102803.25
2023-02-09T05:50:16.805Z,102798.94
2023-02-09T05:52:46.152Z,102802.38
2023-02-09T05:55:15.257Z,102812.66
2023-02-09T05:57:44.277Z,102797.25
2023-02-09T06:00:14.835Z,102810.09
2023-02-09T06:02:45.291Z,102813.53
2023-02-09T06:05:14.349Z,102816.94
2023-02-09T06:07:43.414Z,102825.47
2023-02-09T06:10:12.512Z,102823.81
2023-02-09T06:12:41.554Z,102834.91
2023-02-09T06:15:11.474Z,102818.66
2023-02-09T06:17:40.578Z,102829.75
2023-02-09T06:20:12.393Z,102831.47
2023-02-09T06:22:41.463Z,102835.75
2023-02-09T06:25:10.660Z,102828.91
2023-02-09T06:27:39.782Z,102823.75
2023-02-09T06:30:09.999Z,102822.91
2023-02-09T06:32:39.135Z,102827.13
2023-02-09T06:35:09.857Z,102822.03
2023-02-09T06:37:39.000Z,102822.03
2023-02-09T06:40:08.776Z,102828.00
2023-02-09T06:42:46.720Z,102825.44
2023-02-09T06:45:17.854Z,102816.03
2023-02-09T06:47:47.720Z,102810.06
2023-02-09T06:50:18.947Z,102810.94
2023-02-09T06:52:48.625Z,102807.47
2023-02-09T06:55:17.815Z,102791.22
2023-02-09T06:57:46.975Z,102787.81
2023-02-09T07:00:17.386Z,102786.13
2023-02-09T07:02:46.528Z,102790.44
2023-02-09T07:05:18.713Z,102800.72
2023-02-09T07:07:47.908Z,102792.16
2023-02-09T07:10:18.153Z,102795.59
2023-02-09T07:12:47.314Z,102794.72
2023-02-09T07:15:17.960Z,102793.00
2023-02-09T07:17:47.024Z,102797.28
2023-02-09T07:20:16.132Z,102803.28
2023-02-09T07:22:46.570Z,102789.59
2023-02-09T07:25:15.677Z,102793.03
2023-02-09T07:27:46.049Z,102799.00
2023-02-09T07:30:16.273Z,102805.88
2023-02-09T07:32:46.179Z,102804.19
2023-02-09T07:35:15.396Z,102808.44
2023-02-09T07:37:45.878Z,102815.25
2023-02-09T07:40:15.051Z,102813.53
2023-02-09T07:42:44.088Z,102818.66
2023-02-09T07:45:13.182Z,102819.50
2023-02-09T07:47:42.216Z,102812.53
2023-02-09T07:50:11.698Z,102825.31
2023-02-09T07:52:40.767Z,102826.94
2023-02-09T07:55:11.366Z,102832.13
2023-02-09T07:57:40.395Z,102817.41
2023-02-09T08:00:10.752Z,102815.66
2023-02-09T08:02:46.188Z,102821.63
2023-02-09T08:05:23.669Z,102836.13
2023-02-09T08:07:52.754Z,102817.19
2023-02-09T08:10:23.521Z,102823.19
2023-02-09T08:13:02.573Z,102823.13
2023-02-09T08:15:37.892Z,102827.38
2023-02-09T08:18:12.971Z,102821.41
2023-02-09T08:20:43.276Z,102815.31
2023-02-09T08:23:18.534Z,102822.16
2023-02-09T08:25:51.505Z,102829.91
2023-02-09T08:28:21.730Z,102827.28
2023-02-09T08:30:51.798Z,102827.25
2023-02-09T08:33:20.850Z,102826.38
2023-02-09T08:35:52.251Z,102805.72
2023-02-09T08:38:21.489Z,102803.97
2023-02-09T08:40:51.880Z,102822.84
2023-02-09T08:43:20.897Z,102817.59
2023-02-09T08:45:50.788Z,102815.88
2023-02-09T08:48:20.061Z,102815.81
2023-02-09T08:50:49.809Z,102808.03
2023-02-09T08:53:18.854Z,102810.53
2023-02-09T08:55:49.570Z,102814.66
2023-02-09T08:58:19.994Z,102824.06
2023-02-09T09:00:49.113Z,102813.72
2023-02-09T09:03:18.190Z,102817.22
2023-02-09T09:05:47.442Z,102804.13
2023-02-09T09:08:16.668Z,102802.34
2023-02-09T09:10:45.741Z,102812.00
2023-02-09T09:13:14.867Z,102792.13
2023-02-09T09:15:45.856Z,102797.28
2023-02-09T09:18:15.403Z,102800.66
2023-02-09T09:20:44.708Z,102803.03
2023-02-09T09:23:14.191Z,102797.75
2023-02-09T09:25:44.642Z,102771.97
2023-02-09T09:28:14.139Z,102775.19
2023-02-09T09:30:44.652Z,102784.13
2023-02-09T09:33:13.758Z,102766.34
2023-02-09T09:35:42.976Z,102761.06
2023-02-09T09:38:12.029Z,102753.50
2023-02-09T09:40:42.775Z,102743.25
2023-02-09T09:43:23.851Z,102744.50
2023-02-09T09:45:54.349Z,102750.66
2023-02-09T09:48:25.769Z,102749.78
2023-02-09T09:50:57.908Z,102752.13
2023-02-09T09:53:33.280Z,102765.06
2023-02-09T09:56:06.432Z,102762.59
2023-02-09T09:58:40.246Z,102760.16
2023-02-09T10:01:15.120Z,102756.38
2023-02-09T10:03:44.914Z,102745.84
2023-02-09T10:06:17.659Z,102754.16
2023-02-09T10:08:53.660Z,102748.34
2023-02-09T10:11:27.003Z,102758.28
2023-02-09T10:13:57.778Z,102739.59
2023-02-09T10:16:30.375Z,102734.50
2023-02-09T10:19:02.182Z,102728.44
2023-02-09T10:21:34.064Z,102738.22
2023-02-09T10:24:13.624Z,102748.78
2023-02-09T10:26:43.548Z,102746.16
2023-02-09T10:29:25.370Z,102759.28
2023-02-09T10:32:04.192Z,102738.31
2023-02-09T10:34:42.423Z,102732.19
2023-02-09T10:37:19.258Z,102734.72
2023-02-09T10:39:55.561Z,102743.03
2023-02-09T10:42:29.430Z,102753.28
2023-02-09T10:45:06.785Z,102754.97
2023-02-09T10:47:37.235Z,102738.56
2023-02-09T10:50:19.573Z,102760.69
2023-02-09T10:53:01.090Z,102775.75
2023-02-09T10:55:36.224Z,102763.25
2023-02-09T10:58:11.636Z,102760.25
2023-02-09T11:00:49.808Z,102750.47
2023-02-09T11:03:22.748Z,102753.59
2023-02-09T11:06:01.375Z,102756.81
2023-02-09T11:08:42.751Z,102753.19
2023-02-09T11:11:22.941Z,102766.41
2023-02-09T11:13:52.174Z,102764.72
2023-02-09T11:16:45.336Z,102763.16
2023-02-09T11:19:31.316Z,102755.00
2023-02-09T11:22:08.773Z,102750.53
2023-02-09T11:24:52.194Z,102767.81
2023-02-09T11:27:32.126Z,102768.47
2023-02-09T11:30:16.415Z,102753.91
2023-02-09T11:32:52.764Z,102765.88
2023-02-09T11:35:27.756Z,102762.44
2023-02-09T11:38:01.981Z,102748.78
2023-02-09T11:40:37.365Z,102728.91
2023-02-09T11:43:15.900Z,102748.56
2023-02-09T11:45:47.199Z,102745.19
2023-02-09T11:48:24.928Z,102742.69
2023-02-09T11:51:08.269Z,102740.38
2023-02-09T11:53:43.668Z,102745.88
2023-02-09T11:56:14.768Z,102745.41
2023-02-09T11:58:53.324Z,102749.81
2023-02-09T12:01:36.651Z,102745.75
2023-02-09T12:04:14.941Z,102749.97
2023-02-09T12:06:50.734Z,102749.91
2023-02-09T12:09:36.718Z,102744.41
2023-02-09T12:12:14.387Z,102742.84
2023-02-09T12:15:13.636Z,102743.06
2023-02-09T12:17:49.060Z,102736.38
2023-02-09T12:20:31.106Z,102744.41
2023-02-09T12:23:05.635Z,102737.50
2023-02-09T12:25:54.605Z,102734.56
2023-02-09T12:28:46.549Z,102734.91
2023-02-09T12:31:25.692Z,102729.75
2023-02-09T12:34:12.393Z,102732.06
2023-02-09T12:37:16.940Z,102736.19
2023-02-09T12:40:20.070Z,102738.00
2023-02-09T12:43:15.317Z,102747.63
2023-02-09T12:45:45.920Z,102743.56
2023-02-09T12:48:19.307Z,102743.47
2023-02-09T12:50:54.688Z,102729.91
2023-02-09T12:53:50.435Z,102732.00
2023-02-09T12:56:31.659Z,102715.25
2023-02-09T12:59:32.393Z,102711.22
2023-02-09T13:02:25.917Z,102707.84
2023-02-09T13:05:03.225Z,102706.00
2023-02-09T13:07:49.054Z,102697.28
2023-02-09T13:10:26.507Z,102699.84
2023-02-09T13:12:59.556Z,102690.44
2023-02-09T13:15:46.670Z,102679.16
2023-02-09T13:18:21.149Z,102679.03
2023-02-09T13:21:13.969Z,102668.75
2023-02-09T13:23:54.632Z,102675.72
2023-02-09T13:26:26.648Z,102686.13
2023-02-09T13:29:19.772Z,102687.03
2023-02-09T13:32:01.821Z,102679.22
2023-02-09T13:34:39.005Z,102673.28
2023-02-09T13:37:18.764Z,102674.16
2023-02-09T13:39:57.322Z,102674.13
2023-02-09T13:42:29.558Z,102671.25
2023-02-09T13:45:00.071Z,102676.66
2023-02-09T13:47:30.569Z,102668.75
2023-02-09T13:50:01.813Z,102656.91
2023-02-09T13:52:39.109Z,102650.91
2023-02-09T13:55:19.355Z,102663.91
2023-02-09T13:57:55.525Z,102668.75
2023-02-09T14:00:27.884Z,102664.34
2023-02-09T14:03:01.416Z,102671.16
2023-02-09T14:05:39.435Z,102684.13
2023-02-09T14:08:10.280Z,102691.91
2023-02-09T14:10:42.179Z,102687.00
2023-02-09T14:13:19.919Z,102690.78
2023-02-09T14:16:06.937Z,102693.31
2023-02-09T14:18:47.697Z,102692.47
2023-02-09T14:21:24.237Z,102702.09
2023-02-09T14:24:17.703Z,102692.44
2023-02-09T14:26:55.961Z,102696.56
2023-02-09T14:29:28.737Z,102695.00
2023-02-09T14:31:59.612Z,102706.38
2023-02-09T14:34:38.592Z,102712.53
2023-02-09T14:37:30.297Z,102714.16
2023-02-09T14:40:05.895Z,102719.44
2023-02-09T14:42:39.336Z,102717.63
2023-02-09T14:45:36.476Z,102717.78
2023-02-09T14:48:17.805Z,102738.50
2023-02-09T14:50:48.889Z,102743.81
2023-02-09T14:53:19.114Z,102736.09
2023-02-09T14:55:48.608Z,102730.91
2023-02-09T14:58:23.321Z,102732.63
2023-02-09T15:00:54.554Z,102719.69
2023-02-09T15:03:24.108Z,102725.75
2023-02-09T15:05:59.418Z,102731.78
2023-02-09T15:08:32.366Z,102727.53
2023-02-09T15:11:26.390Z,102716.31
2023-02-09T15:13:59.531Z,102722.38
2023-02-09T15:16:28.658Z,102725.00
2023-02-09T15:18:57.810Z,102724.94
2023-02-09T15:21:28.256Z,102724.94
2023-02-09T15:23:57.308Z,102720.63
2023-02-09T15:26:27.695Z,102715.44
2023-02-09T15:28:56.745Z,102714.53
2023-02-09T15:31:25.842Z,102717.13
2023-02-09T15:33:55.388Z,102726.59
2023-02-09T15:36:25.741Z,102724.84
2023-02-09T15:38:56.680Z,102726.63
2023-02-09T15:41:44.703Z,102730.03
2023-02-09T15:44:35.503Z,102725.75
2023-02-09T15:47:22.752Z,102732.78
2023-02-09T15:49:51.835Z,102731.78
2023-02-09T15:52:21.269Z,102731.78
2023-02-09T15:54:53.761Z,102733.59
2023-02-09T15:57:25.137Z,102734.47
2023-02-09T15:59:54.301Z,102738.91
2023-02-09T16:02:23.587Z,102744.19
2023-02-09T16:04:52.938Z,102744.34
2023-02-09T16:07:40.127Z,102743.56
2023-02-09T16:10:16.711Z,102743.66
2023-02-09T16:12:46.192Z,102745.56
2023-02-09T16:15:17.511Z,102734.31
2023-02-09T16:17:46.596Z,102747.19
2023-02-09T16:20:16.297Z,102746.41
2023-02-09T16:22:47.949Z,102737.84
2023-02-09T16:25:23.931Z,102751.66
2023-02-09T16:27:54.425Z,102752.38
2023-02-09T16:30:26.642Z,102753.28
2023-02-09T16:32:56.751Z,102755.03
2023-02-09T16:35:26.320Z,102757.56
2023-02-09T16:37:56.238Z,102760.13
2023-02-09T16:40:29.306Z,102760.06
2023-02-09T16:43:00.213Z,102757.44
2023-02-09T16:45:31.493Z,102764.34
2023-02-09T16:48:00.598Z,102748.75
2023-02-09T16:50:33.360Z,102758.22
2023-02-09T16:53:05.426Z,102758.22
2023-02-09T16:55:36.999Z,102759.09
2023-02-09T16:58:07.025Z,102761.69
2023-02-09T17:00:38.867Z,102769.44
2023-02-09T17:03:15.378Z,102775.50
2023-02-09T17:05:48.470Z,102777.25
2023-02-09T17:08:20.510Z,102786.59
2023-02-09T17:10:52.545Z,102792.69
2023-02-09T17:13:21.766Z,102796.22
2023-02-09T17:15:53.590Z,102805.69
2023-02-09T17:18:25.732Z,102808.16
2023-02-09T17:20:56.920Z,102806.53
2023-02-09T17:23:28.347Z,102807.38
2023-02-09T17:25:59.290Z,102817.78
2023-02-09T17:28:30.765Z,102815.06
2023-02-09T17:31:01.832Z,102818.59
2023-02-09T17:33:33.035Z,102823.84
2023-02-09T17:38:52.758Z,102816.06
2023-02-09T17:41:29.308Z,102811.63
2023-02-09T17:44:17.569Z,102820.25
2023-02-09T17:46:50.057Z,102818.63
2023-02-09T17:49:19.186Z,102821.19
2023-02-09T17:51:49.652Z,102822.84
2023-02-09T17:54:20.781Z,102828.09
2023-02-09T17:56:51.207Z,102823.78
2023-02-09T17:59:21.227Z,102828.00
2023-02-09T18:01:50.994Z,102838.38
2023-02-09T18:04:22.789Z,102830.53
2023-02-09T18:06:51.930Z,102828.88
2023-02-09T18:09:21.088Z,102827.13
2023-02-09T18:12:02.972Z,102830.53
2023-02-09T18:14:34.444Z,102843.53
2023-02-09T18:17:03.659Z,102845.28
2023-02-09T18:19:33.059Z,102842.75
2023-02-09T18:22:03.141Z,102849.72
2023-02-09T18:24:34.214Z,102836.63
2023-02-09T18:27:05.057Z,102844.41
2023-02-09T18:29:34.176Z,102845.41
2023-02-09T18:32:04.040Z,102844.41
2023-02-09T18:34:37.846Z,102845.25
2023-02-09T18:37:17.677Z,102835.75
2023-02-09T18:39:52.228Z,102834.06
2023-02-09T18:42:23.000Z,102832.41
2023-02-09T18:44:52.053Z,102837.56
2023-02-09T18:47:23.808Z,102835.78
2023-02-09T18:49:56.015Z,102841.75
2023-02-09T18:52:27.040Z,102835.78
2023-02-09T18:54:57.040Z,102836.69
2023-02-09T18:57:37.561Z,102838.50
2023-02-09T19:00:10.350Z,102839.28
2023-02-09T19:02:45.447Z,102830.59
2023-02-09T19:05:19.765Z,102828.13
2023-02-09T19:07:49.730Z,102828.88
2023-02-09T19:10:23.535Z,102829.69
2023-02-09T19:12:59.507Z,102830.53
2023-02-09T19:15:40.048Z,102828.88
2023-02-09T19:18:15.005Z,102823.63
2023-02-09T19:20:50.099Z,102841.84
2023-02-09T19:23:23.311Z,102833.09
2023-02-09T19:26:01.688Z,102839.00
2023-02-09T19:28:37.642Z,102822.56
2023-02-09T19:31:17.192Z,102833.03
2023-02-09T19:33:49.223Z,102833.91
2023-02-09T19:36:18.390Z,102833.03
2023-02-09T19:38:48.189Z,102833.22
2023-02-09T19:41:17.404Z,102828.84
2023-02-09T19:43:47.895Z,102834.03
2023-02-09T19:46:18.110Z,102828.00
2023-02-09T19:48:47.355Z,102828.94
2023-02-09T19:51:16.670Z,102827.34
2023-02-09T19:53:46.157Z,102823.91
2023-02-09T19:56:17.273Z,102824.78
2023-02-09T19:58:47.926Z,102820.47
2023-02-09T20:01:23.540Z,102822.19
2023-02-09T20:03:53.657Z,102827.44
2023-02-09T20:06:23.535Z,102828.44
2023-02-09T20:08:52.766Z,102835.44
2023-02-09T20:11:24.753Z,102828.53
2023-02-09T20:13:57.010Z,102826.75
2023-02-09T20:16:29.166Z,102828.38
2023-02-09T20:18:58.898Z,102823.91
2023-02-09T20:21:28.665Z,102827.34
2023-02-09T20:24:02.051Z,102829.09
2023-02-09T20:26:32.995Z,102832.63
2023-02-09T20:29:05.722Z,102839.44
2023-02-09T20:31:38.404Z,102842.09
2023-02-09T20:34:10.481Z,102843.84
2023-02-09T20:36:44.860Z,102845.50
2023-02-09T20:39:16.056Z,102841.25
2023-02-09T20:42:37.672Z,102845.47
2023-02-09T20:45:31.532Z,102847.22
2023-02-09T20:48:01.247Z,102846.34
2023-02-09T20:50:36.188Z,102846.34
2023-02-09T20:53:07.341Z,102841.19
2023-02-09T20:55:37.841Z,102831.66
2023-02-09T20:58:07.336Z,102840.16
2023-02-09T21:00:40.899Z,102835.00
2023-02-09T21:03:11.674Z,102836.75
2023-02-09T21:05:42.681Z,102840.19
2023-02-09T21:08:18.343Z,102845.34
2023-02-09T21:10:48.514Z,102844.47
2023-02-09T21:13:20.711Z,102855.69
2023-02-09T21:15:52.150Z,102859.16
2023-02-09T21:18:21.923Z,102854.84
2023-02-09T21:20:51.213Z,102860.03
2023-02-09T21:23:21.170Z,102858.38
2023-02-09T21:25:50.384Z,102857.47
2023-02-09T21:28:19.498Z,102860.09
2023-02-09T21:30:50.233Z,102859.16
2023-02-09T21:33:19.353Z,102866.13
2023-02-09T21:35:48.457Z,102870.50
2023-02-09T21:38:17.829Z,102870.50
2023-02-09T21:40:47.192Z,102874.78
2023-02-09T21:43:16.526Z,102861.81
2023-02-09T21:45:45.669Z,102880.88
2023-02-09T21:48:16.201Z,102884.31
2023-02-09T21:50:45.339Z,102873.91
2023-02-09T21:53:14.418Z,102883.31
2023-02-09T21:55:43.461Z,102873.84
2023-02-09T21:58:12.482Z,102883.31
2023-02-09T22:00:41.570Z,102874.69
2023-02-09T22:03:11.345Z,102876.47
2023-02-09T22:05:42.445Z,102879.00
2023-02-09T22:08:12.007Z,102876.34
2023-02-09T22:10:41.196Z,102872.03
2023-02-09T22:13:10.247Z,102876.34
2023-02-09T22:15:42.060Z,102877.19
2023-02-09T22:18:11.947Z,102884.13
2023-02-09T22:20:43.481Z,102885.75
2023-02-09T22:23:12.586Z,102887.56
2023-02-09T22:25:41.748Z,102891.00
2023-02-09T22:28:10.909Z,102891.00
2023-02-09T22:30:40.211Z,102903.03
2023-02-09T22:33:09.301Z,102897.84
2023-02-09T22:35:42.935Z,102891.75
2023-02-09T22:38:11.951Z,102901.25
2023-02-09T22:40:40.934Z,102902.97
2023-02-09T22:43:09.960Z,102894.34
2023-02-09T22:45:39.003Z,102894.34
2023-02-09T22:48:08.025Z,102911.59
2023-02-09T22:50:38.422Z,102921.03
2023-02-09T22:53:09.001Z,102913.25
2023-02-09T22:55:38.100Z,102917.63
2023-02-09T22:58:07.225Z,102914.97
2023-02-09T23:00:36.292Z,102926.16
2023-02-09T23:03:05.347Z,102921.88
2023-02-09T23:05:35.192Z,102923.59
2023-02-09T23:08:04.302Z,102923.59
2023-02-09T23:10:34.702Z,102934.75
2023-02-09T23:13:03.692Z,102923.50
2023-02-09T23:15:32.829Z,102925.28
2023-02-09T23:18:02.036Z,102920.09
2023-02-09T23:20:31.083Z,102926.94
2023-02-09T23:23:05.409Z,102923.53
2023-02-09T23:25:35.815Z,102930.44
2023-02-09T23:28:04.918Z,102927.72
2023-02-09T23:30:35.134Z,102932.09
2023-02-09T23:33:04.173Z,102936.34
2023-02-09T23:35:33.203Z,102934.63
2023-02-09T23:38:02.215Z,102931.09
2023-02-09T23:40:31.290Z,102938.00
2023-02-09T23:43:01.721Z,102927.63
2023-02-09T23:45:30.782Z,102932.84
2023-02-09T23:47:59.842Z,102929.38
2023-02-09T23:50:28.953Z,102930.22
2023-02-09T23:52:58.038Z,102930.22
2023-02-09T23:55:27.028Z,102928.50
2023-02-09T23:57:56.045Z,102933.56
